createdAt,value
2023-01-04T00:01:19.991Z,13.88
2023-01-04T00:03:47.057Z,13.89
2023-01-04T00:06:14.717Z,13.90
2023-01-04T00:08:42.013Z,13.89
2023-01-04T00:11:12.493Z,13.91
2023-01-04T00:13:39.682Z,13.93
2023-01-04T00:16:08.829Z,13.93
2023-01-04T00:18:36.680Z,13.91
2023-01-04T00:21:08.037Z,13.91
2023-01-04T00:23:34.866Z,13.90
2023-01-04T00:26:01.785Z,13.92
2023-01-04T00:28:28.606Z,13.93
2023-01-04T00:30:55.442Z,13.92
2023-01-04T00:33:22.273Z,13.92
2023-01-04T00:35:49.135Z,13.94
2023-01-04T00:38:15.985Z,13.94
2023-01-04T00:40:42.831Z,13.96
2023-01-04T00:43:09.719Z,13.94
2023-01-04T00:45:36.629Z,13.95
2023-01-04T00:48:03.605Z,13.95
2023-01-04T00:50:30.504Z,13.95
2023-01-04T00:52:57.426Z,13.96
2023-01-04T00:55:24.263Z,13.98
2023-01-04T00:57:51.124Z,13.96
2023-01-04T01:00:18.144Z,13.97
2023-01-04T01:02:45.198Z,14.00
2023-01-04T01:05:12.424Z,14.01
2023-01-04T01:07:39.282Z,14.02
2023-01-04T01:10:06.702Z,14.01
2023-01-04T01:12:33.559Z,13.96
2023-01-04T01:15:00.874Z,13.98
2023-01-04T01:17:27.981Z,13.97
2023-01-04T01:19:54.849Z,13.97
2023-01-04T01:22:21.802Z,13.97
2023-01-04T01:24:48.659Z,13.94
2023-01-04T01:27:15.500Z,13.93
2023-01-04T01:29:42.366Z,13.95
2023-01-04T01:32:09.294Z,13.95
2023-01-04T01:34:36.317Z,13.94
2023-01-04T01:37:03.471Z,13.94
2023-01-04T01:39:30.534Z,13.95
2023-01-04T01:41:57.831Z,13.95
2023-01-04T01:44:27.938Z,13.93
2023-01-04T01:46:55.222Z,13.95
2023-01-04T01:49:22.811Z,13.96
2023-01-04T01:51:50.131Z,13.95
2023-01-04T01:54:21.189Z,13.96
2023-01-04T01:56:50.636Z,13.96
2023-01-04T01:59:18.578Z,13.95
2023-01-04T02:01:46.058Z,13.97
2023-01-04T02:04:14.611Z,13.97
2023-01-04T02:06:44.527Z,13.95
2023-01-04T02:09:12.152Z,13.95
2023-01-04T02:11:39.243Z,13.95
2023-01-04T02:14:11.475Z,13.96
2023-01-04T02:16:44.646Z,13.94
2023-01-04T02:19:12.072Z,13.97
2023-01-04T02:21:49.339Z,13.98
2023-01-04T02:24:25.055Z,13.97
2023-01-04T02:27:01.718Z,13.98
2023-01-04T02:29:29.188Z,13.98
2023-01-04T02:31:59.382Z,13.97
2023-01-04T02:34:32.990Z,13.97
2023-01-04T02:37:08.963Z,13.97
2023-01-04T02:39:44.010Z,13.97
2023-01-04T02:42:15.691Z,13.97
2023-01-04T02:44:48.954Z,13.98
2023-01-04T02:47:18.039Z,14.01
2023-01-04T02:49:48.273Z,13.99
2023-01-04T02:52:15.351Z,14.02
2023-01-04T02:54:44.472Z,14.06
2023-01-04T02:57:14.616Z,14.06
2023-01-04T02:59:51.222Z,14.10
2023-01-04T03:02:21.793Z,14.09
2023-01-04T03:04:55.158Z,14.07
2023-01-04T03:07:25.273Z,14.04
2023-01-04T03:09:55.488Z,14.06
2023-01-04T03:12:28.679Z,14.05
2023-01-04T03:15:00.701Z,14.03
2023-01-04T03:17:32.248Z,14.00
2023-01-04T03:20:00.571Z,13.98
2023-01-04T03:22:36.155Z,13.99
2023-01-04T03:25:07.362Z,13.99
2023-01-04T03:27:37.527Z,13.99
2023-01-04T03:30:12.419Z,14.00
2023-01-04T03:32:47.959Z,14.00
2023-01-04T03:35:18.147Z,13.99
2023-01-04T03:37:49.176Z,14.01
2023-01-04T03:40:19.809Z,14.04
2023-01-04T03:42:52.979Z,14.02
2023-01-04T03:45:26.321Z,14.00
2023-01-04T03:47:59.531Z,14.01
2023-01-04T03:50:29.712Z,14.03
2023-01-04T03:52:59.526Z,14.06
2023-01-04T03:55:29.810Z,14.07
2023-01-04T03:57:57.768Z,14.08
2023-01-04T04:00:24.912Z,14.09
2023-01-04T04:02:51.971Z,14.08
2023-01-04T04:05:24.553Z,14.08
2023-01-04T04:07:54.808Z,14.10
2023-01-04T04:10:21.857Z,14.07
2023-01-04T04:12:49.219Z,14.04
2023-01-04T04:15:16.481Z,14.04
2023-01-04T04:17:43.500Z,14.05
2023-01-04T04:20:12.769Z,14.05
2023-01-04T04:22:40.411Z,14.06
2023-01-04T04:25:07.704Z,14.05
2023-01-04T04:27:34.817Z,14.00
2023-01-04T04:30:03.101Z,14.02
2023-01-04T04:32:30.220Z,14.01
2023-01-04T04:34:57.257Z,14.00
2023-01-04T04:37:25.571Z,14.00
2023-01-04T04:39:52.652Z,14.00
2023-01-04T04:42:19.670Z,13.98
2023-01-04T04:44:46.772Z,13.95
2023-01-04T04:47:13.852Z,13.95
2023-01-04T04:49:40.911Z,13.95
2023-01-04T04:52:08.717Z,13.96
2023-01-04T04:54:35.945Z,13.94
2023-01-04T04:57:03.273Z,13.93
2023-01-04T04:59:30.393Z,13.91
2023-01-04T05:01:57.558Z,13.91
2023-01-04T05:04:24.708Z,13.91
2023-01-04T05:06:53.333Z,13.94
2023-01-04T05:09:20.576Z,13.93
2023-01-04T05:11:50.750Z,13.92
2023-01-04T05:14:17.817Z,13.94
2023-01-04T05:16:45.707Z,13.97
2023-01-04T05:19:12.852Z,13.98
2023-01-04T05:21:41.212Z,13.97
2023-01-04T05:24:08.379Z,13.98
2023-01-04T05:26:35.440Z,13.98
2023-01-04T05:29:02.424Z,13.99
2023-01-04T05:31:29.571Z,14.00
2023-01-04T05:33:56.643Z,13.99
2023-01-04T05:36:24.019Z,14.00
2023-01-04T05:38:51.171Z,14.01
2023-01-04T05:41:21.405Z,14.02
2023-01-04T05:43:48.417Z,14.02
2023-01-04T05:46:15.552Z,14.02
2023-01-04T05:48:42.798Z,14.02
2023-01-04T05:51:09.792Z,14.03
2023-01-04T05:53:36.895Z,14.05
2023-01-04T05:56:04.011Z,14.04
2023-01-04T05:58:31.055Z,14.05
2023-01-04T06:00:58.192Z,14.07
2023-01-04T06:03:25.349Z,14.05
2023-01-04T06:05:52.732Z,14.01
2023-01-04T06:08:19.831Z,14.02
2023-01-04T06:10:52.532Z,14.02
2023-01-04T06:13:20.848Z,14.02
2023-01-04T06:15:47.895Z,14.04
2023-01-04T06:18:15.109Z,14.05
2023-01-04T06:20:43.010Z,14.05
2023-01-04T06:23:10.166Z,14.08
2023-01-04T06:25:37.768Z,14.06
2023-01-04T06:28:04.891Z,14.07
2023-01-04T06:30:32.111Z,14.07
2023-01-04T06:32:59.187Z,14.09
2023-01-04T06:35:26.203Z,14.11
2023-01-04T06:37:53.283Z,14.10
2023-01-04T06:40:20.283Z,14.14
2023-01-04T06:42:47.581Z,14.17
2023-01-04T06:45:15.345Z,14.18
2023-01-04T06:47:42.443Z,14.18
2023-01-04T06:50:09.630Z,14.20
2023-01-04T06:52:36.802Z,14.20
2023-01-04T06:55:03.988Z,14.19
2023-01-04T06:57:31.209Z,14.20
2023-01-04T06:59:58.289Z,14.18
2023-01-04T07:02:25.717Z,14.21
2023-01-04T07:04:52.928Z,14.23
2023-01-04T07:07:20.087Z,14.22
2023-01-04T07:09:47.138Z,14.22
2023-01-04T07:12:14.248Z,14.24
2023-01-04T07:14:41.396Z,14.23
2023-01-04T07:17:08.482Z,14.22
2023-01-04T07:19:35.596Z,14.23
2023-01-04T07:22:02.793Z,14.24
2023-01-04T07:24:30.773Z,14.24
2023-01-04T07:27:00.079Z,14.22
2023-01-04T07:29:27.815Z,14.20
2023-01-04T07:31:55.369Z,14.18
2023-01-04T07:34:24.108Z,14.19
2023-01-04T07:36:51.648Z,14.17
2023-01-04T07:39:19.302Z,14.17
2023-01-04T07:41:46.729Z,14.18
2023-01-04T07:44:14.534Z,14.20
2023-01-04T07:46:41.785Z,14.21
2023-01-04T07:49:16.926Z,14.19
2023-01-04T07:51:45.504Z,14.22
2023-01-04T07:54:12.716Z,14.25
2023-01-04T07:56:39.912Z,14.25
2023-01-04T07:59:07.793Z,14.23
2023-01-04T08:01:36.040Z,14.23
2023-01-04T08:04:03.223Z,14.22
2023-01-04T08:06:30.291Z,14.19
2023-01-04T08:08:58.579Z,14.20
2023-01-04T08:11:25.838Z,14.20
2023-01-04T08:13:52.907Z,14.21
2023-01-04T08:16:23.094Z,14.23
2023-01-04T08:18:53.780Z,14.19
2023-01-04T08:21:20.876Z,14.19
2023-01-04T08:23:48.396Z,14.20
2023-01-04T08:26:16.739Z,14.20
2023-01-04T08:28:44.376Z,14.19
2023-01-04T08:31:15.044Z,14.18
2023-01-04T08:33:42.666Z,14.20
2023-01-04T08:36:13.024Z,14.22
2023-01-04T08:38:59.361Z,14.24
2023-01-04T08:44:14.362Z,14.29
2023-01-04T08:46:41.583Z,14.33
2023-01-04T08:49:08.822Z,14.34
2023-01-04T08:51:35.793Z,14.36
2023-01-04T08:54:02.850Z,14.38
2023-01-04T08:56:29.942Z,14.38
2023-01-04T08:58:57.016Z,14.38
2023-01-04T09:01:25.842Z,14.39
2023-01-04T09:03:52.936Z,14.41
2023-01-04T09:06:19.975Z,14.42
2023-01-04T09:08:48.916Z,14.44
2023-01-04T09:11:16.855Z,14.47
2023-01-04T09:13:44.598Z,14.49
2023-01-04T09:16:13.514Z,14.51
2023-01-04T09:18:40.644Z,14.51
2023-01-04T09:21:09.585Z,14.53
2023-01-04T09:23:37.306Z,14.53
2023-01-04T09:26:09.559Z,14.54
2023-01-04T09:28:37.051Z,14.55
2023-01-04T09:31:07.232Z,14.57
2023-01-04T09:34:04.101Z,14.61
2023-01-04T09:36:22.415Z,14.64
2023-01-04T09:38:49.588Z,14.66
2023-01-04T09:41:17.047Z,14.65
2023-01-04T09:43:47.137Z,14.69
2023-01-04T09:46:21.330Z,14.69
2023-01-04T09:48:50.396Z,14.70
2023-01-04T09:51:18.464Z,14.72
2023-01-04T09:53:48.684Z,14.71
2023-01-04T09:56:15.385Z,14.70
2023-01-04T09:58:43.040Z,14.71
2023-01-04T10:01:14.344Z,14.70
2023-01-04T10:03:46.551Z,14.70
2023-01-04T10:06:13.835Z,14.71
2023-01-04T10:08:42.466Z,14.73
2023-01-04T10:11:12.866Z,14.73
2023-01-04T10:13:43.092Z,14.74
2023-01-04T10:16:15.129Z,14.74
2023-01-04T10:21:36.218Z,14.77
2023-01-04T10:24:06.430Z,14.79
2023-01-04T10:26:35.348Z,14.81
2023-01-04T10:29:05.469Z,14.80
2023-01-04T10:31:39.385Z,14.80
2023-01-04T10:34:16.855Z,14.79
2023-01-04T10:36:46.543Z,14.76
2023-01-04T10:39:15.521Z,14.71
2023-01-04T10:41:45.876Z,14.69
2023-01-04T10:44:16.004Z,14.67
2023-01-04T10:46:45.038Z,14.68
2023-01-04T10:49:16.803Z,14.66
2023-01-04T10:51:47.023Z,14.66
2023-01-04T10:54:19.957Z,14.68
2023-01-04T10:56:52.134Z,14.69
2023-01-04T10:59:22.518Z,14.75
2023-01-04T11:01:50.116Z,14.79
2023-01-04T11:04:20.601Z,14.83
2023-01-04T11:06:53.900Z,14.83
2023-01-04T11:09:25.722Z,14.85
2023-01-04T11:11:55.790Z,14.85
2023-01-04T11:14:24.816Z,14.86
2023-01-04T11:16:53.229Z,14.89
2023-01-04T11:19:20.470Z,14.92
2023-01-04T11:21:51.064Z,14.93
2023-01-04T11:24:32.258Z,14.92
2023-01-04T11:27:03.279Z,14.93
2023-01-04T11:29:33.359Z,14.95
2023-01-04T11:32:07.365Z,14.95
2023-01-04T11:34:37.539Z,14.96
2023-01-04T11:37:04.634Z,14.97
2023-01-04T11:39:31.714Z,14.97
2023-01-04T11:42:04.821Z,15.00
2023-01-04T11:44:32.850Z,15.02
2023-01-04T11:47:02.961Z,15.03
2023-01-04T11:49:34.388Z,15.04
2023-01-04T11:52:03.436Z,15.07
2023-01-04T11:54:31.569Z,15.10
2023-01-04T11:57:05.824Z,15.10
2023-01-04T11:59:38.172Z,15.13
2023-01-04T12:02:08.439Z,15.15
2023-01-04T12:04:35.823Z,15.15
2023-01-04T12:07:03.332Z,15.18
2023-01-04T12:09:31.200Z,15.21
2023-01-04T12:12:00.241Z,15.25
2023-01-04T12:14:29.826Z,15.29
2023-01-04T12:16:57.372Z,15.33
2023-01-04T12:19:25.620Z,15.32
2023-01-04T12:21:54.848Z,15.33
2023-01-04T12:24:24.552Z,15.33
2023-01-04T12:26:52.745Z,15.31
2023-01-04T12:29:25.838Z,15.35
2023-01-04T12:31:54.724Z,15.37
2023-01-04T12:34:23.291Z,15.36
2023-01-04T12:36:51.736Z,15.36
2023-01-04T12:39:26.229Z,15.36
2023-01-04T12:41:56.675Z,15.40
2023-01-04T12:44:26.884Z,15.43
2023-01-04T12:46:57.034Z,15.45
2023-01-04T12:49:28.896Z,15.40
2023-01-04T12:52:29.058Z,15.40
2023-01-04T12:54:49.132Z,15.36
2023-01-04T12:57:17.601Z,15.36
2023-01-04T12:59:47.820Z,15.35
2023-01-04T13:02:17.033Z,15.33
2023-01-04T13:04:44.385Z,15.29
2023-01-04T13:07:14.796Z,15.30
2023-01-04T13:09:48.203Z,15.29
2023-01-04T13:12:21.206Z,15.28
2023-01-04T13:14:50.381Z,15.29
2023-01-04T13:17:17.991Z,15.27
2023-01-04T13:19:45.977Z,15.27
2023-01-04T13:22:16.101Z,15.24
2023-01-04T13:24:44.538Z,15.24
2023-01-04T13:27:14.736Z,15.26
2023-01-04T13:29:42.391Z,15.25
2023-01-04T13:32:12.289Z,15.23
2023-01-04T13:34:40.725Z,15.21
2023-01-04T13:37:10.905Z,15.18
2023-01-04T13:39:38.422Z,15.14
2023-01-04T13:42:07.465Z,15.09
2023-01-04T13:45:09.263Z,15.03
2023-01-04T13:47:24.658Z,14.96
2023-01-04T13:49:51.852Z,14.93
2023-01-04T13:52:47.262Z,14.90
2023-01-04T13:55:10.819Z,14.86
2023-01-04T13:57:37.935Z,14.85
2023-01-04T14:00:05.867Z,14.81
2023-01-04T14:02:34.941Z,14.75
2023-01-04T14:05:02.323Z,14.69
2023-01-04T14:07:29.712Z,14.70
2023-01-04T14:09:59.369Z,14.68
2023-01-04T14:12:28.307Z,14.64
2023-01-04T14:14:58.524Z,14.61
2023-01-04T14:17:27.276Z,14.58
2023-01-04T14:19:55.790Z,14.52
2023-01-04T14:22:24.397Z,14.49
2023-01-04T14:25:09.346Z,14.45
2023-01-04T14:27:37.679Z,14.40
2023-01-04T14:30:07.946Z,14.37
2023-01-04T14:32:35.054Z,14.34
2023-01-04T14:35:07.054Z,14.34
2023-01-04T14:37:35.656Z,14.32
2023-01-04T14:40:02.666Z,14.29
2023-01-04T14:42:31.714Z,14.27
2023-01-04T14:44:59.179Z,14.28
2023-01-04T14:47:26.232Z,14.30
2023-01-04T14:49:53.412Z,14.31
2023-01-04T14:52:23.435Z,14.33
2023-01-04T14:54:51.097Z,14.35
2023-01-04T14:57:18.345Z,14.36
2023-01-04T14:59:46.397Z,14.36
2023-01-04T15:02:13.952Z,14.37
2023-01-04T15:04:41.181Z,14.38
2023-01-04T15:07:28.200Z,14.38
2023-01-04T15:09:55.313Z,14.35
2023-01-04T15:12:22.357Z,14.32
2023-01-04T15:14:49.453Z,14.32
2023-01-04T15:17:16.521Z,14.28
2023-01-04T15:19:44.202Z,14.29
2023-01-04T15:22:11.409Z,14.28
2023-01-04T15:24:38.517Z,14.24
2023-01-04T15:27:06.071Z,14.24
2023-01-04T15:29:34.343Z,14.24
2023-01-04T15:32:01.574Z,14.27
2023-01-04T15:34:28.734Z,14.26
2023-01-04T15:36:55.903Z,14.28
2023-01-04T15:39:22.992Z,14.29
2023-01-04T15:41:53.176Z,14.31
2023-01-04T15:44:20.352Z,14.34
2023-01-04T15:46:47.637Z,14.35
2023-01-04T15:49:17.459Z,14.34
2023-01-04T15:51:45.576Z,14.32
2023-01-04T15:54:12.900Z,14.34
2023-01-04T15:56:40.254Z,14.35
2023-01-04T15:59:07.526Z,14.36
2023-01-04T16:01:34.703Z,14.38
2023-01-04T16:04:02.896Z,14.40
2023-01-04T16:06:30.052Z,14.40
2023-01-04T16:08:59.230Z,14.41
2023-01-04T16:11:26.272Z,14.39
2023-01-04T16:13:53.451Z,14.37
2023-01-04T16:16:21.604Z,14.36
2023-01-04T16:18:50.187Z,14.34
2023-01-04T16:21:18.390Z,14.29
2023-01-04T16:23:49.526Z,14.27
2023-01-04T16:26:16.588Z,14.24
2023-01-04T16:28:43.751Z,14.21
2023-01-04T16:31:11.107Z,14.20
2023-01-04T16:33:38.272Z,14.16
2023-01-04T16:36:06.777Z,14.13
2023-01-04T16:38:37.332Z,14.13
2023-01-04T16:41:05.346Z,14.11
2023-01-04T16:43:32.675Z,14.07
2023-01-04T16:46:07.491Z,14.07
2023-01-04T16:48:34.550Z,14.01
2023-01-04T16:51:01.640Z,14.01
2023-01-04T16:53:28.718Z,13.98
2023-01-04T16:55:55.782Z,13.96
2023-01-04T16:58:22.910Z,13.96
2023-01-04T17:00:49.996Z,13.94
2023-01-04T17:03:17.100Z,13.92
2023-01-04T17:05:44.211Z,13.89
2023-01-04T17:08:11.337Z,13.86
2023-01-04T17:10:39.027Z,13.86
2023-01-04T17:13:07.136Z,13.84
2023-01-04T17:15:43.538Z,13.82
2023-01-04T17:18:13.044Z,13.78
2023-01-04T17:20:41.085Z,13.76
2023-01-04T17:23:08.197Z,13.75
2023-01-04T17:25:35.367Z,13.71
2023-01-04T17:28:02.431Z,13.69
2023-01-04T17:30:29.695Z,13.70
2023-01-04T17:32:56.767Z,13.70
2023-01-04T17:35:23.832Z,13.71
2023-01-04T17:37:50.918Z,13.73
2023-01-04T17:40:22.913Z,13.72
2023-01-04T17:42:50.749Z,13.70
2023-01-04T17:45:17.862Z,13.71
2023-01-04T17:47:45.002Z,13.66
2023-01-04T17:50:12.216Z,13.69
2023-01-04T17:52:39.356Z,13.69
2023-01-04T17:55:06.903Z,13.68
2023-01-04T17:57:35.487Z,13.70
2023-01-04T18:00:02.945Z,13.69
2023-01-04T18:02:30.135Z,13.69
2023-01-04T18:04:57.452Z,13.70
2023-01-04T18:07:25.704Z,13.71
2023-01-04T18:09:53.220Z,13.73
2023-01-04T18:12:21.705Z,13.71
2023-01-04T18:14:49.614Z,13.68
2023-01-04T18:17:16.754Z,13.70
2023-01-04T18:19:46.492Z,13.69
2023-01-04T18:22:13.857Z,13.67
2023-01-04T18:24:40.949Z,13.69
2023-01-04T18:27:26.437Z,13.67
2023-01-04T18:29:54.749Z,13.66
2023-01-04T18:32:22.168Z,13.60
2023-01-04T18:34:50.032Z,13.57
2023-01-04T18:37:19.300Z,13.53
2023-01-04T18:39:47.048Z,13.52
2023-01-04T18:42:14.254Z,13.57
2023-01-04T18:44:47.799Z,13.61
2023-01-04T18:47:16.315Z,13.58
2023-01-04T18:49:43.423Z,13.50
2023-01-04T18:52:10.525Z,13.48
2023-01-04T18:54:37.592Z,13.48
2023-01-04T18:57:05.564Z,13.48
2023-01-04T18:59:32.692Z,13.44
2023-01-04T19:02:02.244Z,13.42
2023-01-04T19:04:32.012Z,13.41
2023-01-04T19:06:59.253Z,13.39
2023-01-04T19:09:26.354Z,13.37
2023-01-04T19:11:53.397Z,13.37
2023-01-04T19:14:20.486Z,13.36
2023-01-04T19:16:47.722Z,13.35
2023-01-04T19:19:14.863Z,13.34
2023-01-04T19:21:42.062Z,13.34
2023-01-04T19:24:09.340Z,13.32
2023-01-04T19:26:36.495Z,13.31
2023-01-04T19:29:04.709Z,13.29
2023-01-04T19:31:31.790Z,13.31
2023-01-04T19:33:58.958Z,13.30
2023-01-04T19:36:26.072Z,13.26
2023-01-04T19:38:54.859Z,13.24
2023-01-04T19:41:31.050Z,13.24
2023-01-04T19:44:03.585Z,13.23
2023-01-04T19:46:32.161Z,13.21
2023-01-04T19:48:59.331Z,13.20
2023-01-04T19:51:28.240Z,13.20
2023-01-04T19:53:55.541Z,13.20
2023-01-04T19:56:22.821Z,13.20
2023-01-04T19:58:50.178Z,13.19
2023-01-04T20:01:19.354Z,13.14
2023-01-04T20:03:47.139Z,13.14
2023-01-04T20:06:14.828Z,13.12
2023-01-04T20:08:42.165Z,13.09
2023-01-04T20:11:09.291Z,13.08
2023-01-04T20:13:36.511Z,13.12
2023-01-04T20:16:05.254Z,13.13
2023-01-04T20:18:32.917Z,13.12
2023-01-04T20:21:00.395Z,13.14
2023-01-04T20:23:27.531Z,13.13
2023-01-04T20:25:56.443Z,13.14
2023-01-04T20:28:24.589Z,13.14
2023-01-04T20:30:54.768Z,13.14
2023-01-04T20:33:21.826Z,13.13
2023-01-04T20:35:48.911Z,13.14
2023-01-04T20:38:15.971Z,13.12
2023-01-04T20:40:43.041Z,13.10
2023-01-04T20:43:13.206Z,13.11
2023-01-04T20:45:42.351Z,13.10
2023-01-04T20:48:09.554Z,13.10
2023-01-04T20:50:36.712Z,13.09
2023-01-04T20:53:04.139Z,13.05
2023-01-04T20:55:31.326Z,13.03
2023-01-04T20:57:58.418Z,13.00
2023-01-04T21:00:25.463Z,12.97
2023-01-04T21:02:52.651Z,12.97
2023-01-04T21:05:19.869Z,12.96
2023-01-04T21:07:47.037Z,12.96
2023-01-04T21:10:14.237Z,12.99
2023-01-04T21:12:41.281Z,12.99
2023-01-04T21:15:08.640Z,12.98
2023-01-04T21:17:35.714Z,12.98
2023-01-04T21:20:02.773Z,13.00
2023-01-04T21:22:29.874Z,13.01
2023-01-04T21:24:57.169Z,13.01
2023-01-04T21:27:24.302Z,13.00
2023-01-04T21:29:51.670Z,12.98
2023-01-04T21:32:18.819Z,12.94
2023-01-04T21:34:45.904Z,12.95
2023-01-04T21:37:13.051Z,12.93
2023-01-04T21:39:40.099Z,12.93
2023-01-04T21:42:07.181Z,12.95
2023-01-04T21:44:34.542Z,12.95
2023-01-04T21:47:01.566Z,12.93
2023-01-04T21:49:28.707Z,12.95
2023-01-04T21:51:55.795Z,12.97
2023-01-04T21:54:22.894Z,12.95
2023-01-04T21:56:50.635Z,12.95
2023-01-04T21:59:17.636Z,12.97
2023-01-04T22:01:44.998Z,12.97
2023-01-04T22:04:12.197Z,12.94
2023-01-04T22:06:39.437Z,12.93
2023-01-04T22:09:07.520Z,12.93
2023-01-04T22:11:34.624Z,12.94
2023-01-04T22:14:01.805Z,12.97
2023-01-04T22:16:29.932Z,12.97
2023-01-04T22:18:57.067Z,12.95
2023-01-04T22:21:24.208Z,12.94
2023-01-04T22:23:51.542Z,12.96
2023-01-04T22:26:18.641Z,12.94
2023-01-04T22:28:45.910Z,12.95
2023-01-04T22:31:13.719Z,12.95
2023-01-04T22:33:40.976Z,12.95
2023-01-04T22:36:12.464Z,12.95
2023-01-04T22:38:42.728Z,12.96
2023-01-04T22:41:12.582Z,12.95
2023-01-04T22:43:40.091Z,12.95
2023-01-04T22:46:08.425Z,12.91
2023-01-04T22:48:36.173Z,12.90
2023-01-04T22:51:06.357Z,12.90
2023-01-04T22:53:33.520Z,12.90
2023-01-04T22:56:18.535Z,12.89
2023-01-04T22:58:52.435Z,12.89
2023-01-04T23:01:21.193Z,12.88
2023-01-04T23:03:49.027Z,12.89
2023-01-04T23:06:16.312Z,12.89
2023-01-04T23:08:43.560Z,12.91
2023-01-04T23:11:12.010Z,12.92
2023-01-04T23:13:39.528Z,12.91
2023-01-04T23:16:07.728Z,12.89
2023-01-04T23:18:35.559Z,12.90
2023-01-04T23:21:03.453Z,12.91
2023-01-04T23:23:30.902Z,12.90
2023-01-04T23:26:06.622Z,12.90
2023-01-04T23:28:36.588Z,12.94
2023-01-04T23:31:04.169Z,12.95
2023-01-04T23:33:35.881Z,12.99
2023-01-04T23:36:07.092Z,13.02
2023-01-04T23:38:34.711Z,13.02
2023-01-04T23:41:01.829Z,13.03
2023-01-04T23:43:28.963Z,13.05
2023-01-04T23:45:56.026Z,13.05
2023-01-04T23:48:26.958Z,13.06
2023-01-04T23:50:55.159Z,13.09
2023-01-04T23:53:22.301Z,13.08
2023-01-04T23:55:53.863Z,13.08
2023-01-04T23:58:20.964Z,13.07
